Terminal Aerodrome Forecast
Issued by NWS Lake Charles, LA

Home | Current Version | Previous Version | Text Only | Print | Product List | Glossary On
Versions: 1 2 3 4 5 6 7 8 9 10 11 12
000
FTUS44 KLCH 032334
TAFAEX
TAF
KAEX 032334Z 0400/0424 13008KT P6SM FEW060
     FM040200 VRB03KT P6SM SKC
     FM041800 14006KT P6SM FEW050=

USA.gov is the U.S. government's official web portal to all federal, state and local government web resources and services.